Terminal Aerodrome Forecast
Issued by NWS Billings, MT

Home | Current Version | Previous Version | Text Only | Print | Product List | Glossary On
Versions: 1 2 3 4 5 6 7 8 9 10 11 12 13 14 15 16
000
FTUS45 KBYZ 061733
TAFSHR
TAF
KSHR 061733Z 0618/0718 31009KT P6SM BKN020 BKN080
     FM062100 32009KT P6SM SCT025 BKN080
     FM070600 29007KT P6SM SCT025 BKN050=

USA.gov is the U.S. government's official web portal to all federal, state and local government web resources and services.